Time;durP1;ratioP1;P1;durP2;ratioP2;P2;SDS_P1;SDS_P2;PMS_P1;PMS_P2;Temp;Humidity;BMP_temperature;BMP_pressure;BME280_temperature;BME280_humidity;BME280_pressure;Samples;Min_cycle;Max_cycle;Signal;HPM_P1;HPM_P2
2022/05/11 00:05:48;;;;;;;;;6.00;6.00;;;;;;;;2;279084871;279084871;-73
2022/05/11 00:14:31;;;;;;;;;11.00;8.00;;;;;;;;2;234070637;234070637;-73
2022/05/11 00:23:31;;;;;;;;;2.50;2.50;;;;;;;;2;279079715;279079715;-73
2022/05/11 00:32:14;;;;;;;;;7.50;7.50;;;;;;;;2;234073106;234073106;-73
2022/05/11 00:41:15;;;;;;;;;5.00;5.00;;;;;;;;2;279083590;279083590;-73
2022/05/11 00:50:03;;;;;;;;;8.00;8.00;;;;;;;;2;234068380;234068380;-73
2022/05/11 00:59:07;;;;;;;;;6.00;6.00;;;;;;;;2;279081358;279081358;-72
2022/05/11 01:07:52;;;;;;;;;6.00;6.00;;;;;;;;2;234069107;234069107;-73
2022/05/11 01:16:53;;;;;;;;;6.50;6.50;;;;;;;;2;279083573;279083573;-73
2022/05/11 01:25:36;;;;;;;;;4.00;4.00;;;;;;;;2;234069960;234069960;-73
2022/05/11 01:34:36;;;;;;;;;16.00;11.00;;;;;;;;2;279081423;279081423;-73
2022/05/11 01:43:20;;;;;;;;;6.00;6.00;;;;;;;;2;234070199;234070199;-73
2022/05/11 01:52:20;;;;;;;;;6.00;6.00;;;;;;;;2;279080222;279080222;-73
2022/05/11 02:01:03;;;;;;;;;8.50;8.50;;;;;;;;2;234070090;234070090;-73
2022/05/11 02:10:04;;;;;;;;;7.50;7.50;;;;;;;;2;279084164;279084164;-73
2022/05/11 02:18:47;;;;;;;;;7.50;7.50;;;;;;;;2;234069655;234069655;-73
2022/05/11 02:27:48;;;;;;;;;10.00;10.00;;;;;;;;2;279081385;279081385;-73
2022/05/11 02:36:32;;;;;;;;;8.50;8.50;;;;;;;;2;234067266;234067266;-73
2022/05/11 02:45:33;;;;;;;;;29.00;11.50;;;;;;;;2;279079574;279079574;-73
2022/05/11 02:54:16;;;;;;;;;7.00;7.00;;;;;;;;2;234068664;234068664;-73
2022/05/11 03:03:17;;;;;;;;;7.50;7.50;;;;;;;;2;279083920;279083920;-73
2022/05/11 03:12:00;;;;;;;;;2.50;2.50;;;;;;;;2;234071932;234071932;-73
2022/05/11 03:21:00;;;;;;;;;8.00;8.00;;;;;;;;2;279081963;279081963;-73
2022/05/11 03:29:43;;;;;;;;;11.50;11.50;;;;;;;;2;234070444;234070444;-73
2022/05/11 03:38:43;;;;;;;;;8.00;8.00;;;;;;;;2;279083876;279083876;-73
2022/05/11 03:47:26;;;;;;;;;8.50;7.00;;;;;;;;2;234070948;234070948;-73
2022/05/11 03:56:26;;;;;;;;;11.50;11.50;;;;;;;;2;279080797;279080797;-73
2022/05/11 04:05:10;;;;;;;;;7.50;7.50;;;;;;;;2;234070457;234070457;-73
2022/05/11 04:14:11;;;;;;;;;8.50;8.50;;;;;;;;2;279080621;279080621;-73
2022/05/11 04:22:55;;;;;;;;;11.00;11.00;;;;;;;;2;234070903;234070903;-73
2022/05/11 04:31:56;;;;;;;;;11.00;8.00;;;;;;;;2;279080075;279080075;-73
2022/05/11 04:40:38;;;;;;;;;9.50;7.50;;;;;;;;2;234070276;234070276;-73
2022/05/11 04:49:39;;;;;;;;;13.00;13.00;;;;;;;;2;279083356;279083356;-73
2022/05/11 04:58:22;;;;;;;;;13.50;8.50;;;;;;;;2;234072000;234072000;-73
2022/05/11 05:07:22;;;;;;;;;10.50;10.50;;;;;;;;2;279081623;279081623;-73
2022/05/11 05:16:04;;;;;;;;;22.50;10.50;;;;;;;;2;234072840;234072840;-73
2022/05/11 05:25:05;;;;;;;;;9.00;9.00;;;;;;;;2;279081761;279081761;-73
2022/05/11 05:33:49;;;;;;;;;14.50;12.50;;;;;;;;2;234069399;234069399;-74
2022/05/11 05:42:50;;;;;;;;;21.50;16.50;;;;;;;;2;279078397;279078397;-74
2022/05/11 05:51:32;;;;;;;;;14.50;14.50;;;;;;;;2;234073809;234073809;-74
2022/05/11 06:00:33;;;;;;;;;16.50;12.50;;;;;;;;2;279083026;279083026;-74
2022/05/11 06:09:16;;;;;;;;;14.00;14.00;;;;;;;;2;234068233;234068233;-75
2022/05/11 06:18:17;;;;;;;;;19.50;19.50;;;;;;;;2;279081987;279081987;-73
2022/05/11 06:26:59;;;;;;;;;24.50;22.00;;;;;;;;2;234070399;234070399;-75
2022/05/11 06:36:04;;;;;;;;;18.50;14.00;;;;;;;;2;279084524;279084524;-72
2022/05/11 06:44:47;;;;;;;;;16.00;7.50;;;;;;;;2;234069493;234069493;-74
2022/05/11 07:02:48;;;;;;;;;17.00;17.00;;;;;;;;2;234067761;234067761;-73
2022/05/11 07:20:51;;;;;;;;;8.50;8.50;;;;;;;;2;234070820;234070820;-72
2022/05/11 07:29:53;;;;;;;;;11.00;11.00;;;;;;;;2;279080617;279080617;-78
2022/05/11 07:38:38;;;;;;;;;8.50;8.50;;;;;;;;2;234072975;234072975;-74
2022/05/11 07:47:39;;;;;;;;;6.50;6.50;;;;;;;;2;279081602;279081602;-74
2022/05/11 08:05:41;;;;;;;;;4.00;2.50;;;;;;;;2;279082706;279082706;-73
2022/05/11 08:14:23;;;;;;;;;3.00;3.00;;;;;;;;2;234068061;234068061;-74
2022/05/11 08:23:26;;;;;;;;;2.50;2.50;;;;;;;;2;279085125;279085125;-76
2022/05/11 08:41:33;;;;;;;;;2.50;2.50;;;;;;;;2;279079797;279079797;-75
2022/05/11 08:50:20;;;;;;;;;4.00;4.00;;;;;;;;2;234069329;234069329;-74
2022/05/11 08:59:32;;;;;;;;;3.00;3.00;;;;;;;;2;279083187;279083187;-74
2022/05/11 09:08:14;;;;;;;;;3.50;2.00;;;;;;;;2;234068218;234068218;-75
2022/05/11 09:17:26;;;;;;;;;3.50;3.50;;;;;;;;2;279080287;279080287;-74
2022/05/11 09:26:10;;;;;;;;;1.50;1.50;;;;;;;;2;234071910;234071910;-73
2022/05/11 09:35:22;;;;;;;;;2.50;2.50;;;;;;;;2;279081903;279081903;-72
2022/05/11 09:44:26;;;;;;;;;2.50;2.50;;;;;;;;2;234069650;234069650;-74
2022/05/11 09:53:30;;;;;;;;;3.50;3.50;;;;;;;;2;279082469;279082469;-75
2022/05/11 10:02:12;;;;;;;;;4.00;4.00;;;;;;;;2;234069828;234069828;-75
2022/05/11 10:11:16;;;;;;;;;1.00;1.00;;;;;;;;2;279080794;279080794;-74
2022/05/11 10:29:33;;;;;;;;;1.00;1.00;;;;;;;;2;279081571;279081571;-74
2022/05/11 10:38:31;;;;;;;;;4.00;4.00;;;;;;;;2;234067983;234067983;-73
2022/05/11 10:47:42;;;;;;;;;4.00;4.00;;;;;;;;2;279081874;279081874;-75
2022/05/11 10:56:28;;;;;;;;;1.50;1.50;;;;;;;;2;234069286;234069286;-77
2022/05/11 11:05:29;;;;;;;;;0.00;0.00;;;;;;;;2;279078763;279078763;-75
2022/05/11 11:14:15;;;;;;;;;4.00;1.50;;;;;;;;2;234067266;234067266;-74
2022/05/11 11:23:16;;;;;;;;;2.00;2.00;;;;;;;;2;279081686;279081686;-73
2022/05/11 11:32:01;;;;;;;;;1.50;1.50;;;;;;;;2;234071958;234071958;-74
2022/05/11 11:41:16;;;;;;;;;0.50;0.50;;;;;;;;2;279082789;279082789;-75
2022/05/11 11:49:59;;;;;;;;;8.00;2.50;;;;;;;;2;234068269;234068269;-76
2022/05/11 11:59:10;;;;;;;;;1.50;1.50;;;;;;;;2;279080548;279080548;-73
2022/05/11 12:17:33;;;;;;;;;1.00;1.00;;;;;;;;2;279086053;279086053;-72
2022/05/11 12:38:54;;;;;;;;;1.50;1.50;;;;;;;;2;279085104;279085104;-74
2022/05/11 12:47:44;;;;;;;;;2.00;2.00;;;;;;;;2;234073518;234073518;-72
2022/05/11 12:56:55;;;;;;;;;0.50;0.50;;;;;;;;2;279088817;279088817;-74
2022/05/11 13:05:38;;;;;;;;;3.00;3.00;;;;;;;;2;234081087;234081087;-73
2022/05/11 13:14:47;;;;;;;;;2.50;2.50;;;;;;;;2;279088672;279088672;-73
2022/05/11 13:23:33;;;;;;;;;6.00;2.00;;;;;;;;2;234070794;234070794;-72
2022/05/11 13:32:37;;;;;;;;;4.00;1.00;;;;;;;;2;279083451;279083451;-73
2022/05/11 13:41:28;;;;;;;;;2.50;2.50;;;;;;;;2;234068152;234068152;-73
2022/05/11 13:50:28;;;;;;;;;6.50;1.00;;;;;;;;2;279082927;279082927;-73
2022/05/11 13:59:11;;;;;;;;;1.00;1.00;;;;;;;;2;234068565;234068565;-72
2022/05/11 14:08:12;;;;;;;;;3.50;1.00;;;;;;;;2;279082129;279082129;-73
2022/05/11 14:16:56;;;;;;;;;0.50;0.50;;;;;;;;2;234072463;234072463;-73
2022/05/11 14:27:17;;;;;;;;;0.50;0.50;;;;;;;;162117;30;234070522;-72
2022/05/11 14:36:17;;;;;;;;;0.50;0.50;;;;;;;;2;279082040;279082040;-75
2022/05/11 14:45:00;;;;;;;;;2.00;2.00;;;;;;;;2;234069010;234069010;-72
2022/05/11 14:54:01;;;;;;;;;1.50;1.50;;;;;;;;2;279083903;279083903;-73
2022/05/11 15:02:44;;;;;;;;;10.00;2.00;;;;;;;;2;234068026;234068026;-70
2022/05/11 15:20:47;;;;;;;;;1.50;1.50;;;;;;;;2;234071019;234071019;-70
2022/05/11 15:29:48;;;;;;;;;1.00;1.00;;;;;;;;2;279082160;279082160;-69
2022/05/11 15:38:30;;;;;;;;;3.00;3.00;;;;;;;;2;234071544;234071544;-70
2022/05/11 15:47:32;;;;;;;;;1.50;1.50;;;;;;;;2;279082489;279082489;-69
2022/05/11 15:56:15;;;;;;;;;1.00;1.00;;;;;;;;2;234069186;234069186;-71
2022/05/11 16:05:17;;;;;;;;;1.00;1.00;;;;;;;;2;279080330;279080330;-69
2022/05/11 16:14:01;;;;;;;;;2.00;2.00;;;;;;;;2;234069477;234069477;-70
2022/05/11 16:23:01;;;;;;;;;0.50;0.50;;;;;;;;2;279081535;279081535;-71
2022/05/11 16:31:44;;;;;;;;;0.50;0.50;;;;;;;;2;234068737;234068737;-72
2022/05/11 16:40:45;;;;;;;;;1.50;1.50;;;;;;;;2;279081842;279081842;-71
2022/05/11 16:49:28;;;;;;;;;2.50;2.50;;;;;;;;2;234070640;234070640;-72
2022/05/11 16:58:28;;;;;;;;;3.50;3.50;;;;;;;;2;279082473;279082473;-74
2022/05/11 17:07:11;;;;;;;;;0.50;0.50;;;;;;;;2;234070406;234070406;-73
2022/05/11 17:16:12;;;;;;;;;2.00;2.00;;;;;;;;2;279078978;279078978;-74
2022/05/11 17:24:54;;;;;;;;;13.00;1.00;;;;;;;;2;234070916;234070916;-72
2022/05/11 17:33:55;;;;;;;;;2.00;2.00;;;;;;;;2;279082504;279082504;-73
2022/05/11 17:42:40;;;;;;;;;0.50;0.50;;;;;;;;2;234070186;234070186;-73
2022/05/11 17:51:41;;;;;;;;;3.00;3.00;;;;;;;;2;279081114;279081114;-72
2022/05/11 18:00:25;;;;;;;;;0.00;0.00;;;;;;;;2;234070168;234070168;-74
2022/05/11 18:09:26;;;;;;;;;1.00;1.00;;;;;;;;2;279082079;279082079;-73
2022/05/11 18:18:09;;;;;;;;;1.50;1.50;;;;;;;;2;234069792;234069792;-72
2022/05/11 18:27:09;;;;;;;;;1.50;1.50;;;;;;;;2;279080595;279080595;-73
2022/05/11 18:35:33;;;;;;;;;2.00;2.00;;;;;;;;2;234070164;234070164;-72
2022/05/11 18:44:34;;;;;;;;;2.00;2.00;;;;;;;;2;279079816;279079816;-73
2022/05/11 18:53:16;;;;;;;;;1.50;1.50;;;;;;;;2;234072956;234072956;-73
2022/05/11 19:02:17;;;;;;;;;0.50;0.50;;;;;;;;2;279084542;279084542;-73
2022/05/11 19:11:00;;;;;;;;;1.50;1.50;;;;;;;;2;234068807;234068807;-74
2022/05/11 19:20:01;;;;;;;;;1.00;1.00;;;;;;;;2;279082157;279082157;-72
2022/05/11 19:28:43;;;;;;;;;1.00;1.00;;;;;;;;2;234072996;234072996;-71
2022/05/11 19:37:44;;;;;;;;;2.00;2.00;;;;;;;;2;279081255;279081255;-72
2022/05/11 19:46:27;;;;;;;;;2.50;2.50;;;;;;;;2;234067649;234067649;-72
2022/05/11 19:55:27;;;;;;;;;0.00;0.00;;;;;;;;2;279079410;279079410;-72
2022/05/11 20:04:12;;;;;;;;;0.00;0.00;;;;;;;;2;234069990;234069990;-73
2022/05/11 20:13:12;;;;;;;;;0.50;0.50;;;;;;;;2;279080496;279080496;-74
2022/05/11 20:21:55;;;;;;;;;1.50;1.50;;;;;;;;2;234070823;234070823;-72
2022/05/11 20:35:05;;;;;;;;;0.50;0.50;;;;;;;;2;279084089;279084089;-73
2022/05/11 20:40:02;;;;;;;;;0.50;0.50;;;;;;;;2;234073249;234073249;-75
2022/05/11 20:49:03;;;;;;;;;1.00;1.00;;;;;;;;2;279083210;279083210;-76
2022/05/11 20:57:47;;;;;;;;;0.00;0.00;;;;;;;;2;234067842;234067842;-75
2022/05/11 21:06:47;;;;;;;;;2.00;2.00;;;;;;;;2;279080619;279080619;-75
2022/05/11 21:15:30;;;;;;;;;5.50;1.50;;;;;;;;2;234070851;234070851;-76
2022/05/11 21:24:33;;;;;;;;;0.00;0.00;;;;;;;;2;279081283;279081283;-75
2022/05/11 21:33:16;;;;;;;;;0.00;0.00;;;;;;;;2;234070139;234070139;-75
2022/05/11 21:42:16;;;;;;;;;2.00;2.00;;;;;;;;2;279086412;279086412;-76
2022/05/11 21:50:59;;;;;;;;;0.00;0.00;;;;;;;;2;234069316;234069316;-76
2022/05/11 21:59:59;;;;;;;;;0.00;0.00;;;;;;;;2;279083407;279083407;-75
2022/05/11 22:08:42;;;;;;;;;2.00;2.00;;;;;;;;2;234067437;234067437;-75
2022/05/11 22:17:42;;;;;;;;;1.00;1.00;;;;;;;;2;279084164;279084164;-76
2022/05/11 22:26:25;;;;;;;;;0.50;0.50;;;;;;;;2;234071909;234071909;-75
2022/05/11 22:35:27;;;;;;;;;1.00;1.00;;;;;;;;2;279082581;279082581;-76
2022/05/11 22:44:10;;;;;;;;;1.50;1.50;;;;;;;;2;234070695;234070695;-76
2022/05/11 22:53:11;;;;;;;;;4.00;4.00;;;;;;;;2;279083103;279083103;-75
2022/05/11 23:01:54;;;;;;;;;4.50;4.50;;;;;;;;2;234072662;234072662;-76
2022/05/11 23:10:55;;;;;;;;;1.50;1.50;;;;;;;;2;279082484;279082484;-78
2022/05/11 23:19:37;;;;;;;;;2.50;1.00;;;;;;;;2;234070107;234070107;-77
2022/05/11 23:28:38;;;;;;;;;1.50;1.50;;;;;;;;2;279081062;279081062;-75
2022/05/11 23:37:20;;;;;;;;;1.00;1.00;;;;;;;;2;234068950;234068950;-75
2022/05/11 23:46:21;;;;;;;;;2.00;2.00;;;;;;;;2;279080882;279080882;-75
2022/05/11 23:55:03;;;;;;;;;1.00;1.00;;;;;;;;2;234070405;234070405;-76
